createdAt,value
2022-08-10T00:00:49.468Z,0.00
2022-08-10T00:01:51.257Z,0.00
2022-08-10T00:02:49.450Z,0.00
2022-08-10T00:03:49.475Z,0.00
2022-08-10T00:04:49.447Z,0.00
2022-08-10T00:05:52.399Z,0.00
2022-08-10T00:06:49.423Z,0.00
2022-08-10T00:07:49.414Z,0.00
2022-08-10T00:08:49.432Z,0.00
2022-08-10T00:09:50.715Z,0.00
2022-08-10T00:10:49.392Z,0.00
2022-08-10T00:11:49.388Z,0.00
2022-08-10T00:12:54.779Z,0.00
2022-08-10T00:13:50.390Z,0.00
2022-08-10T00:14:49.357Z,0.00
2022-08-10T00:15:53.918Z,0.00
2022-08-10T00:16:49.341Z,0.00
2022-08-10T00:17:49.330Z,0.00
2022-08-10T00:18:49.348Z,0.00
2022-08-10T00:20:04.128Z,0.00
2022-08-10T00:20:50.305Z,0.00
2022-08-10T00:21:49.295Z,0.00
2022-08-10T00:22:52.912Z,0.00
2022-08-10T00:23:50.310Z,0.00
2022-08-10T00:24:49.277Z,0.00
2022-08-10T00:25:49.264Z,0.00
2022-08-10T00:28:00.745Z,0.00
2022-08-10T00:28:02.894Z,0.00
2022-08-10T00:28:50.277Z,0.00
2022-08-10T00:29:49.234Z,0.00
2022-08-10T00:30:49.217Z,0.00
2022-08-10T00:31:58.710Z,0.00
2022-08-10T00:32:50.203Z,0.00
2022-08-10T00:33:49.221Z,0.00
2022-08-10T00:34:49.193Z,0.00
2022-08-10T00:35:49.173Z,0.00
2022-08-10T00:36:49.165Z,0.00
2022-08-10T00:37:56.213Z,0.00
2022-08-10T00:38:50.176Z,0.00
2022-08-10T00:39:49.185Z,0.00
2022-08-10T00:40:49.128Z,0.00
2022-08-10T00:42:02.296Z,0.00
2022-08-10T00:42:50.109Z,0.00
2022-08-10T00:43:49.136Z,0.00
2022-08-10T00:44:49.103Z,0.00
2022-08-10T00:46:21.628Z,0.00
2022-08-10T00:46:49.081Z,0.00
2022-08-10T00:47:49.080Z,0.00
2022-08-10T00:49:00.369Z,0.00
2022-08-10T00:49:50.055Z,0.00
2022-08-10T00:50:49.041Z,0.00
2022-08-10T00:51:49.056Z,0.00
2022-08-10T00:52:49.035Z,0.00
2022-08-10T00:53:49.054Z,0.00
2022-08-10T00:54:49.017Z,0.00
2022-08-10T00:57:14.270Z,0.00
2022-08-10T00:57:16.490Z,0.00
2022-08-10T00:57:54.855Z,0.00
2022-08-10T00:58:50.012Z,0.00
2022-08-10T00:59:57.719Z,0.00
2022-08-10T01:00:49.967Z,0.00
2022-08-10T01:02:09.376Z,0.00
2022-08-10T01:02:50.020Z,0.00
2022-08-10T01:04:54.239Z,0.00
2022-08-10T01:05:00.772Z,0.00
2022-08-10T01:05:51.285Z,0.00
2022-08-10T01:06:48.915Z,0.00
2022-08-10T01:07:48.911Z,0.00
2022-08-10T01:08:48.932Z,0.00
2022-08-10T01:09:57.073Z,0.00
2022-08-10T01:10:49.890Z,0.00
2022-08-10T01:12:38.597Z,0.00
2022-08-10T01:12:50.036Z,0.00
2022-08-10T01:13:48.884Z,0.00
2022-08-10T01:14:48.844Z,0.00
2022-08-10T01:15:48.826Z,0.00
2022-08-10T01:16:49.825Z,0.00
2022-08-10T01:17:50.581Z,0.00
2022-08-10T01:18:48.851Z,0.00
2022-08-10T01:19:48.803Z,0.00
2022-08-10T01:20:48.796Z,0.00
2022-08-10T01:21:56.740Z,0.00
2022-08-10T01:22:49.769Z,0.00
2022-08-10T01:23:48.762Z,0.00
2022-08-10T01:24:48.789Z,0.00
2022-08-10T01:26:11.743Z,0.00
2022-08-10T01:26:49.740Z,0.00
2022-08-10T01:27:48.751Z,0.00
2022-08-10T01:28:48.755Z,0.00
2022-08-10T01:29:48.734Z,0.00
2022-08-10T01:30:48.721Z,0.00
2022-08-10T01:31:48.699Z,0.00
2022-08-10T01:32:48.688Z,0.00
2022-08-10T01:34:02.465Z,0.00
2022-08-10T01:34:49.669Z,0.00
2022-08-10T01:35:48.670Z,0.00
2022-08-10T01:36:48.651Z,0.00
2022-08-10T01:37:52.336Z,0.00
2022-08-10T01:38:48.682Z,0.00
2022-08-10T01:39:48.692Z,0.00
2022-08-10T01:40:48.635Z,0.00
2022-08-10T01:41:48.614Z,0.00
2022-08-10T01:42:48.607Z,0.00
2022-08-10T01:43:48.627Z,0.00
2022-08-10T01:44:48.585Z,0.00
2022-08-10T01:45:48.580Z,0.00
2022-08-10T01:46:48.576Z,0.00
2022-08-10T01:47:48.567Z,0.00
2022-08-10T01:48:48.584Z,0.00
2022-08-10T01:49:48.573Z,0.00
2022-08-10T01:50:59.984Z,0.00
2022-08-10T01:51:49.528Z,0.00
2022-08-10T01:52:48.537Z,0.00
2022-08-10T01:53:48.560Z,0.00
2022-08-10T01:54:48.512Z,0.00
2022-08-10T01:55:48.500Z,0.00
2022-08-10T01:56:48.497Z,0.00
2022-08-10T01:57:48.482Z,0.00
2022-08-10T01:58:48.506Z,0.00
2022-08-10T01:59:54.562Z,0.00
2022-08-10T02:00:49.523Z,0.00
2022-08-10T02:01:48.479Z,0.00
2022-08-10T02:02:48.453Z,0.00
2022-08-10T02:04:05.330Z,0.00
2022-08-10T02:04:49.417Z,0.00
2022-08-10T02:05:48.516Z,0.00
2022-08-10T02:06:48.404Z,0.00
2022-08-10T02:07:48.395Z,0.00
2022-08-10T02:08:48.412Z,0.00
2022-08-10T02:09:49.373Z,0.00
2022-08-10T02:10:48.372Z,0.00
2022-08-10T02:12:05.645Z,0.00
2022-08-10T02:12:49.346Z,0.00
2022-08-10T02:13:48.383Z,0.00
2022-08-10T02:14:48.336Z,0.00
2022-08-10T02:16:02.283Z,0.00
2022-08-10T02:16:49.315Z,0.00
2022-08-10T02:17:57.097Z,0.00
2022-08-10T02:18:49.330Z,0.00
2022-08-10T02:19:48.288Z,0.00
2022-08-10T02:20:48.339Z,0.00
2022-08-10T02:22:35.381Z,0.00
2022-08-10T02:22:49.445Z,0.00
2022-08-10T02:23:59.377Z,0.00
2022-08-10T02:24:49.280Z,0.00
2022-08-10T02:25:48.308Z,0.00
2022-08-10T02:26:48.242Z,0.00
2022-08-10T02:27:49.217Z,0.00
2022-08-10T02:28:48.218Z,0.00
2022-08-10T02:29:49.110Z,0.00
2022-08-10T02:30:48.199Z,0.00
2022-08-10T02:31:49.626Z,0.00
2022-08-10T02:32:49.633Z,0.00
2022-08-10T02:33:57.451Z,0.00
2022-08-10T02:34:49.189Z,0.00
2022-08-10T02:35:54.193Z,0.00
2022-08-10T02:36:49.152Z,0.00
2022-08-10T02:37:48.142Z,0.00
2022-08-10T02:38:58.408Z,0.00
2022-08-10T02:39:49.158Z,0.00
2022-08-10T02:45:02.253Z,0.00
2022-08-10T02:45:14.972Z,0.00
2022-08-10T02:45:18.652Z,0.00
2022-08-10T02:45:22.801Z,0.00
2022-08-10T02:45:23.510Z,0.00
2022-08-10T02:45:50.081Z,0.00
2022-08-10T02:46:48.072Z,0.00
2022-08-10T02:47:52.121Z,0.00
2022-08-10T02:48:48.086Z,0.00
2022-08-10T02:49:48.072Z,0.00
2022-08-10T02:50:48.028Z,0.00
2022-08-10T02:52:07.104Z,0.00
2022-08-10T02:52:49.015Z,0.00
2022-08-10T02:53:55.169Z,0.00
2022-08-10T02:54:49.030Z,0.00
2022-08-10T02:55:47.990Z,0.00
2022-08-10T02:56:48.006Z,0.00
2022-08-10T02:58:17.161Z,0.00
2022-08-10T02:58:48.965Z,0.00
2022-08-10T02:59:48.001Z,0.00
2022-08-10T03:00:47.984Z,0.00
2022-08-10T03:01:47.942Z,0.00
2022-08-10T03:02:47.930Z,0.00
2022-08-10T03:03:47.938Z,0.00
2022-08-10T03:04:55.511Z,0.00
2022-08-10T03:05:48.907Z,0.00
2022-08-10T03:06:47.903Z,0.00
2022-08-10T03:07:47.885Z,0.00
2022-08-10T03:08:47.906Z,0.00
2022-08-10T03:09:47.879Z,0.00
2022-08-10T03:10:47.906Z,0.00
2022-08-10T03:12:35.818Z,0.00
2022-08-10T03:12:49.202Z,0.00
2022-08-10T03:13:59.781Z,0.00
2022-08-10T03:14:49.869Z,0.00
2022-08-10T03:15:47.829Z,0.00
2022-08-10T03:16:47.813Z,0.00
2022-08-10T03:17:57.958Z,0.00
2022-08-10T03:18:48.795Z,0.00
2022-08-10T03:20:35.560Z,0.00
2022-08-10T03:20:48.779Z,0.00
2022-08-10T03:21:48.997Z,4.00
2022-08-10T03:22:47.765Z,4.00
2022-08-10T03:23:47.776Z,0.00
2022-08-10T03:24:47.777Z,4.00
2022-08-10T03:25:53.817Z,4.00
2022-08-10T03:26:48.746Z,0.00
2022-08-10T03:27:47.722Z,4.00
2022-08-10T03:28:47.713Z,4.00
2022-08-10T03:30:29.498Z,4.00
2022-08-10T03:30:48.701Z,4.00
2022-08-10T03:31:47.692Z,4.00
2022-08-10T03:32:47.676Z,8.00
2022-08-10T03:33:47.667Z,8.00
2022-08-10T03:34:47.689Z,12.00
2022-08-10T03:36:40.241Z,16.00
2022-08-10T03:36:48.692Z,16.00
2022-08-10T03:37:47.637Z,16.00
2022-08-10T03:38:47.646Z,20.00
2022-08-10T03:39:47.715Z,24.00
2022-08-10T03:40:47.610Z,28.00
2022-08-10T03:41:47.809Z,32.00
2022-08-10T03:42:48.615Z,36.00
2022-08-10T03:43:47.761Z,40.00
2022-08-10T03:44:50.530Z,48.00
2022-08-10T03:45:55.321Z,56.00
2022-08-10T03:46:48.563Z,64.00
2022-08-10T03:47:47.558Z,68.00
2022-08-10T03:48:49.342Z,80.00
2022-08-10T03:49:47.570Z,88.00
2022-08-10T03:50:51.225Z,104.00
2022-08-10T03:51:47.526Z,112.00
2022-08-10T03:52:47.519Z,124.00
2022-08-10T03:54:02.893Z,144.00
2022-08-10T03:54:48.611Z,160.00
2022-08-10T03:56:30.587Z,172.00
2022-08-10T03:56:48.496Z,192.00
2022-08-10T03:57:49.738Z,216.00
2022-08-10T03:58:47.467Z,240.00
2022-08-10T03:59:47.480Z,264.00
2022-08-10T04:00:47.513Z,292.00
2022-08-10T04:02:46.664Z,320.00
2022-08-10T04:02:48.516Z,348.00
2022-08-10T04:03:48.456Z,380.00
2022-08-10T04:04:48.445Z,412.00
2022-08-10T04:05:47.434Z,448.00
2022-08-10T04:06:47.406Z,480.00
2022-08-10T04:07:47.384Z,520.00
2022-08-10T04:08:47.374Z,560.00
2022-08-10T04:09:54.537Z,596.00
2022-08-10T04:10:48.363Z,640.00
2022-08-10T04:11:47.373Z,680.00
2022-08-10T04:12:47.343Z,724.00
2022-08-10T04:13:47.342Z,768.00
2022-08-10T04:14:51.407Z,812.00
2022-08-10T04:15:48.323Z,864.00
2022-08-10T04:16:47.333Z,920.00
2022-08-10T04:18:00.186Z,972.00
2022-08-10T04:18:48.294Z,1028.00
2022-08-10T04:19:47.333Z,1084.00
2022-08-10T04:20:47.282Z,1144.00
2022-08-10T04:21:47.267Z,1196.00
2022-08-10T04:22:47.307Z,1256.00
2022-08-10T04:23:52.555Z,1320.00
2022-08-10T04:24:49.310Z,1388.00
2022-08-10T04:25:48.236Z,1448.00
2022-08-10T04:26:47.233Z,1516.00
2022-08-10T04:27:47.219Z,1584.00
2022-08-10T04:28:47.228Z,1652.00
2022-08-10T04:29:47.248Z,1724.00
2022-08-10T04:30:47.193Z,1796.00
2022-08-10T04:31:47.188Z,1872.00
2022-08-10T04:32:47.184Z,1952.00
2022-08-10T04:33:47.168Z,2024.00
2022-08-10T04:34:47.195Z,2108.00
2022-08-10T04:35:47.179Z,2184.00
2022-08-10T04:36:47.147Z,2264.00
2022-08-10T04:37:47.822Z,2348.00
2022-08-10T04:38:47.127Z,2428.00
2022-08-10T04:39:47.192Z,2504.00
2022-08-10T04:40:47.109Z,2588.00
2022-08-10T04:41:47.560Z,2672.00
2022-08-10T04:42:47.099Z,2764.00
2022-08-10T04:43:47.084Z,2864.00
2022-08-10T04:44:47.110Z,2960.00
2022-08-10T04:45:48.292Z,3048.00
2022-08-10T04:46:58.099Z,3140.00
2022-08-10T04:47:57.257Z,3224.00
2022-08-10T04:48:59.565Z,3300.00
2022-08-10T04:49:55.026Z,3388.00
2022-08-10T04:50:48.906Z,3484.00
2022-08-10T04:51:47.038Z,3576.00
2022-08-10T04:52:47.024Z,3664.00
2022-08-10T04:54:05.721Z,3752.00
2022-08-10T04:54:48.027Z,3848.00
2022-08-10T04:55:46.990Z,3948.00
2022-08-10T04:56:46.983Z,4044.00
2022-08-10T04:57:46.973Z,4144.00
2022-08-10T04:58:46.961Z,4240.00
2022-08-10T04:59:47.000Z,4332.00
2022-08-10T05:00:46.976Z,4476.00
2022-08-10T05:02:30.271Z,4600.00
2022-08-10T05:02:47.944Z,4720.00
2022-08-10T05:04:34.973Z,4828.00
2022-08-10T05:04:47.933Z,4904.00
2022-08-10T05:05:46.900Z,4984.00
2022-08-10T05:06:46.897Z,5168.00
2022-08-10T05:07:54.237Z,5308.00
2022-08-10T05:08:47.869Z,5404.00
2022-08-10T05:10:01.517Z,5576.00
2022-08-10T05:10:47.881Z,5740.00
2022-08-10T05:11:46.851Z,5892.00
2022-08-10T05:12:46.837Z,6028.00
2022-08-10T05:13:46.831Z,6184.00
2022-08-10T05:14:46.855Z,6320.00
2022-08-10T05:15:46.815Z,6464.00
2022-08-10T05:16:46.802Z,6604.00
2022-08-10T05:18:04.599Z,6728.00
2022-08-10T05:18:47.786Z,6884.00
2022-08-10T05:20:05.034Z,6992.00
2022-08-10T05:20:50.217Z,7144.00
2022-08-10T05:22:03.207Z,7336.00
2022-08-10T05:22:47.766Z,7436.00
2022-08-10T05:23:46.742Z,7568.00
2022-08-10T05:24:46.742Z,7664.00
2022-08-10T05:25:46.758Z,7712.00
2022-08-10T05:26:55.204Z,7812.00
2022-08-10T05:27:47.707Z,7872.00
2022-08-10T05:28:46.738Z,7812.00
2022-08-10T05:29:46.693Z,7504.00
2022-08-10T05:30:47.711Z,7552.00
2022-08-10T05:31:46.693Z,7644.00
2022-08-10T05:32:58.516Z,7756.00
2022-08-10T05:33:47.657Z,7864.00
2022-08-10T05:34:46.654Z,7964.00
2022-08-10T05:35:56.900Z,8072.00
2022-08-10T05:36:47.633Z,8200.00
2022-08-10T05:38:09.422Z,8228.00
2022-08-10T05:38:47.615Z,8240.00
2022-08-10T05:39:46.675Z,8104.00
2022-08-10T05:40:48.095Z,8480.00
2022-08-10T05:41:51.053Z,8552.00
2022-08-10T05:42:48.580Z,8604.00
2022-08-10T05:43:46.577Z,8668.00
2022-08-10T05:44:46.581Z,8904.00
2022-08-10T05:46:19.849Z,8684.00
2022-08-10T05:46:47.540Z,8136.00
2022-08-10T05:48:56.192Z,9132.00
2022-08-10T05:48:59.402Z,10172.00
2022-08-10T05:49:47.543Z,10368.00
2022-08-10T05:50:46.561Z,10504.00
2022-08-10T05:51:46.514Z,10692.00
2022-08-10T05:52:46.499Z,10720.00
2022-08-10T05:54:02.337Z,10684.00
2022-08-10T05:54:47.480Z,10736.00
2022-08-10T05:55:46.525Z,10780.00
2022-08-10T05:56:53.450Z,10724.00
2022-08-10T05:57:47.454Z,11204.00
2022-08-10T05:58:46.449Z,11540.00
2022-08-10T06:00:29.394Z,11600.00
2022-08-10T06:00:49.710Z,11620.00
2022-08-10T06:02:30.258Z,11680.00
2022-08-10T06:02:47.928Z,11172.00
2022-08-10T06:03:46.406Z,11424.00
2022-08-10T06:04:46.396Z,11892.00
2022-08-10T06:05:46.426Z,12392.00
2022-08-10T06:06:46.380Z,12796.00
2022-08-10T06:07:46.388Z,13276.00
2022-08-10T06:08:46.367Z,13788.00
2022-08-10T06:09:59.916Z,14124.00
2022-08-10T06:12:23.274Z,14288.00
2022-08-10T06:12:28.262Z,14372.00
2022-08-10T06:12:55.466Z,14480.00
2022-08-10T06:14:13.121Z,14532.00
2022-08-10T06:14:51.469Z,14560.00
2022-08-10T06:15:52.149Z,14696.00
2022-08-10T06:16:47.294Z,14916.00
2022-08-10T06:17:46.286Z,15200.00
2022-08-10T06:18:47.280Z,15392.00
2022-08-10T06:19:46.275Z,15488.00
2022-08-10T06:20:46.259Z,15548.00
2022-08-10T06:22:00.639Z,15600.00
2022-08-10T06:22:47.289Z,15712.00
2022-08-10T06:23:46.236Z,15844.00
2022-08-10T06:25:12.315Z,15984.00
2022-08-10T06:26:12.269Z,15072.00
2022-08-10T06:26:48.243Z,12772.00
2022-08-10T06:27:46.212Z,15884.00
2022-08-10T06:29:02.165Z,16448.00
2022-08-10T06:29:47.184Z,16928.00
2022-08-10T06:30:46.186Z,17376.00
2022-08-10T06:31:48.548Z,14452.00
2022-08-10T06:32:46.164Z,16216.00
2022-08-10T06:33:46.147Z,17376.00
2022-08-10T06:34:47.152Z,17728.00
2022-08-10T06:35:46.203Z,17952.00
2022-08-10T06:36:46.134Z,18080.00
2022-08-10T06:37:50.573Z,18272.00
2022-08-10T06:38:47.110Z,18336.00
2022-08-10T06:39:46.135Z,18464.00
2022-08-10T06:40:46.120Z,18560.00
2022-08-10T06:42:14.644Z,18752.00
2022-08-10T06:42:47.091Z,18880.00
2022-08-10T06:43:46.066Z,19040.00
2022-08-10T06:44:46.086Z,19072.00
2022-08-10T06:45:46.080Z,19296.00
2022-08-10T06:47:22.747Z,19360.00
2022-08-10T06:47:47.034Z,19584.00
2022-08-10T06:48:46.036Z,19712.00
2022-08-10T06:49:46.024Z,20064.00
2022-08-10T06:50:58.004Z,20192.00
2022-08-10T06:51:57.553Z,20288.00
2022-08-10T06:52:46.999Z,20416.00
2022-08-10T06:53:52.231Z,20448.00
2022-08-10T06:54:46.976Z,20768.00
2022-08-10T06:55:55.653Z,21088.00
2022-08-10T06:57:08.142Z,21408.00
2022-08-10T06:58:00.065Z,21728.00
2022-08-10T06:58:46.950Z,22016.00
2022-08-10T06:59:45.942Z,22272.00
2022-08-10T07:00:46.016Z,22656.00
2022-08-10T07:01:50.882Z,21824.00
2022-08-10T07:02:46.919Z,21536.00
2022-08-10T07:03:45.911Z,20256.00
2022-08-10T07:04:45.904Z,20576.00
2022-08-10T07:05:50.474Z,22560.00
2022-08-10T07:06:47.913Z,23584.00
2022-08-10T07:07:45.881Z,23648.00
2022-08-10T07:08:45.877Z,23936.00
2022-08-10T07:09:45.860Z,25824.00
2022-08-10T07:10:46.693Z,27136.00
2022-08-10T07:11:45.903Z,28640.00
2022-08-10T07:12:45.837Z,26240.00
2022-08-10T07:14:16.147Z,25824.00
2022-08-10T07:14:46.816Z,27968.00
2022-08-10T07:15:59.130Z,31552.00
2022-08-10T07:16:46.847Z,36896.00
2022-08-10T07:17:45.778Z,42848.00
2022-08-10T07:18:46.781Z,49344.00
2022-08-10T07:19:49.903Z,60288.00
2022-08-10T07:20:46.802Z,69504.00
2022-08-10T07:21:45.811Z,87008.00
2022-08-10T07:23:22.801Z,104864.00
2022-08-10T07:23:56.790Z,97984.00
2022-08-10T07:24:46.750Z,74656.00
2022-08-10T07:25:45.742Z,62688.00
2022-08-10T07:26:45.760Z,59008.00
2022-08-10T07:27:59.767Z,59552.00
2022-08-10T07:28:48.246Z,55968.00
2022-08-10T07:29:53.840Z,48992.00
2022-08-10T07:30:46.684Z,45920.00
2022-08-10T07:31:57.036Z,43520.00
2022-08-10T07:32:46.671Z,41408.00
2022-08-10T07:33:45.656Z,38976.00
2022-08-10T07:34:45.651Z,37024.00
2022-08-10T07:35:45.650Z,37344.00
2022-08-10T07:36:45.703Z,36864.00
2022-08-10T07:37:45.635Z,37504.00
2022-08-10T07:38:45.626Z,38816.00
2022-08-10T07:40:02.645Z,38208.00
2022-08-10T07:40:46.614Z,37440.00
2022-08-10T07:41:45.630Z,36768.00
2022-08-10T07:42:46.157Z,36352.00
2022-08-10T07:43:46.591Z,36448.00
2022-08-10T07:44:45.582Z,36096.00
2022-08-10T07:45:45.579Z,36128.00
2022-08-10T07:46:45.593Z,35520.00
2022-08-10T07:47:46.043Z,34080.00
2022-08-10T07:48:46.547Z,34208.00
2022-08-10T07:49:45.542Z,35104.00
2022-08-10T07:50:45.531Z,35200.00
2022-08-10T07:51:45.551Z,34432.00
2022-08-10T07:52:46.519Z,34432.00
2022-08-10T07:53:45.510Z,34720.00
2022-08-10T07:54:45.510Z,35520.00
2022-08-10T07:56:01.485Z,34976.00
2022-08-10T07:56:49.271Z,35264.00
2022-08-10T07:57:46.484Z,36608.00
2022-08-10T07:58:46.346Z,38752.00
2022-08-10T07:59:46.484Z,40384.00
2022-08-10T08:00:45.453Z,40576.00
2022-08-10T08:01:45.512Z,40512.00
2022-08-10T08:02:45.441Z,41152.00
2022-08-10T08:03:45.442Z,39904.00
2022-08-10T08:04:46.433Z,37856.00
2022-08-10T08:05:58.285Z,38304.00
2022-08-10T08:06:46.436Z,38560.00
2022-08-10T08:07:45.447Z,39360.00
2022-08-10T08:08:45.399Z,40448.00
2022-08-10T08:09:57.697Z,41440.00
2022-08-10T08:10:46.374Z,41696.00
2022-08-10T08:11:45.404Z,40800.00
2022-08-10T08:12:45.381Z,37792.00
2022-08-10T08:13:45.364Z,35904.00
2022-08-10T08:14:45.351Z,38816.00
2022-08-10T08:16:18.487Z,44032.00
2022-08-10T08:16:46.355Z,47168.00
2022-08-10T08:17:45.332Z,47328.00
2022-08-10T08:19:03.866Z,46272.00
2022-08-10T08:19:55.520Z,42368.00
2022-08-10T08:20:46.309Z,37568.00
2022-08-10T08:24:06.310Z,35456.00
2022-08-10T08:24:09.034Z,34368.00
2022-08-10T08:24:16.134Z,33728.00
2022-08-10T08:24:46.278Z,33184.00
2022-08-10T08:25:45.267Z,33088.00
2022-08-10T08:26:49.377Z,34592.00
2022-08-10T08:27:47.483Z,50944.00
2022-08-10T08:28:45.242Z,78848.00
2022-08-10T08:29:45.230Z,88992.00
2022-08-10T08:30:48.787Z,84576.00
2022-08-10T08:32:01.374Z,82912.00
2022-08-10T08:32:46.215Z,83200.00
2022-08-10T08:33:45.203Z,85120.00
2022-08-10T08:34:45.201Z,83584.00
2022-08-10T08:35:45.189Z,78176.00
2022-08-10T08:36:45.231Z,79968.00
2022-08-10T08:38:31.644Z,84256.00
2022-08-10T08:38:46.169Z,85280.00
2022-08-10T08:39:47.236Z,83552.00
2022-08-10T08:40:45.171Z,75264.00
2022-08-10T08:41:45.169Z,79072.00
2022-08-10T08:42:45.148Z,80288.00
2022-08-10T08:43:45.144Z,82112.00
2022-08-10T08:44:45.125Z,79776.00
2022-08-10T08:45:58.677Z,83520.00
2022-08-10T08:46:47.735Z,83200.00
2022-08-10T08:48:04.148Z,84512.00
2022-08-10T08:48:46.101Z,85536.00
2022-08-10T08:50:08.478Z,84864.00
2022-08-10T08:50:46.080Z,84032.00
2022-08-10T08:52:12.388Z,84512.00
2022-08-10T08:52:46.078Z,84736.00
2022-08-10T08:54:03.372Z,84448.00
2022-08-10T08:54:46.046Z,83680.00
2022-08-10T08:56:03.990Z,84320.00
2022-08-10T08:56:50.175Z,75552.00
2022-08-10T08:57:49.788Z,75776.00
2022-08-10T08:58:46.033Z,84192.00
2022-08-10T08:59:45.031Z,84416.00
2022-08-10T09:00:45.014Z,83200.00
2022-08-10T09:01:45.062Z,82400.00
2022-08-10T09:02:45.021Z,83552.00
2022-08-10T09:03:45.988Z,84160.00
2022-08-10T09:04:44.975Z,83808.00
2022-08-10T09:05:58.417Z,80896.00
2022-08-10T09:06:45.975Z,80192.00
2022-08-10T09:08:02.059Z,82208.00
2022-08-10T09:08:45.954Z,82272.00
2022-08-10T09:09:44.979Z,84928.00
2022-08-10T09:10:44.946Z,84768.00
2022-08-10T09:11:44.938Z,79360.00
2022-08-10T09:12:44.944Z,77600.00
2022-08-10T09:13:44.928Z,82464.00
2022-08-10T09:14:44.959Z,81408.00
2022-08-10T09:15:44.922Z,79104.00
2022-08-10T09:16:44.901Z,78848.00
2022-08-10T09:17:44.892Z,84896.00
2022-08-10T09:18:44.887Z,84832.00
2022-08-10T09:19:44.909Z,83584.00
2022-08-10T09:20:44.892Z,84160.00
2022-08-10T09:22:12.920Z,81184.00
2022-08-10T09:22:45.862Z,79808.00
2022-08-10T09:24:01.956Z,80000.00
2022-08-10T09:24:45.874Z,80800.00
2022-08-10T09:25:44.849Z,78752.00
2022-08-10T09:26:44.862Z,80288.00
2022-08-10T09:27:44.831Z,79360.00
2022-08-10T09:28:44.827Z,79648.00
2022-08-10T09:29:45.849Z,79008.00
2022-08-10T09:31:03.600Z,79872.00
2022-08-10T09:31:55.884Z,81792.00
2022-08-10T09:36:14.250Z,80992.00
2022-08-10T09:36:22.618Z,81824.00
2022-08-10T09:36:22.796Z,81536.00
2022-08-10T09:36:23.689Z,81728.00
2022-08-10T09:36:45.769Z,82048.00
2022-08-10T09:38:01.810Z,81824.00
2022-08-10T09:38:45.760Z,81248.00
2022-08-10T09:40:06.587Z,81888.00
2022-08-10T09:40:59.862Z,81792.00
2022-08-10T09:41:45.785Z,77792.00
2022-08-10T09:42:49.755Z,81536.00
2022-08-10T09:43:45.722Z,81152.00
2022-08-10T09:44:58.151Z,79392.00
2022-08-10T09:45:45.712Z,79328.00
2022-08-10T09:46:44.707Z,81760.00
2022-08-10T09:48:02.201Z,82880.00
2022-08-10T09:48:45.688Z,82272.00
2022-08-10T09:50:04.200Z,81792.00
2022-08-10T09:51:47.794Z,84384.00
2022-08-10T09:52:45.670Z,84672.00
2022-08-10T09:53:44.654Z,83616.00
2022-08-10T09:54:44.690Z,83040.00
2022-08-10T09:56:17.847Z,81120.00
2022-08-10T09:56:45.655Z,81472.00
2022-08-10T09:57:46.293Z,80640.00
2022-08-10T09:58:45.620Z,79360.00
2022-08-10T10:00:01.316Z,79104.00
2022-08-10T10:00:45.619Z,79904.00
2022-08-10T10:02:02.440Z,78816.00
2022-08-10T10:02:45.649Z,81824.00
2022-08-10T10:03:44.673Z,67552.00
2022-08-10T10:04:44.577Z,65120.00
2022-08-10T10:05:50.525Z,79616.00
2022-08-10T10:06:45.560Z,81824.00
2022-08-10T10:07:44.554Z,82400.00
2022-08-10T10:08:44.545Z,81312.00
2022-08-10T10:09:44.573Z,78624.00
2022-08-10T10:10:47.714Z,77408.00
2022-08-10T10:11:44.525Z,70624.00
2022-08-10T10:12:44.518Z,58816.00
2022-08-10T10:14:02.596Z,64064.00
2022-08-10T10:14:45.550Z,75680.00
2022-08-10T10:15:44.493Z,77984.00
2022-08-10T10:16:44.493Z,79456.00
2022-08-10T10:17:44.491Z,75872.00
2022-08-10T10:18:44.487Z,76320.00
2022-08-10T10:19:44.507Z,77600.00
2022-08-10T10:20:44.480Z,77856.00
2022-08-10T10:21:52.377Z,81568.00
2022-08-10T10:22:45.504Z,79968.00
2022-08-10T10:23:59.872Z,77344.00
2022-08-10T10:24:46.465Z,78272.00
2022-08-10T10:25:51.478Z,74304.00
2022-08-10T10:26:45.437Z,73056.00
2022-08-10T10:27:44.422Z,76256.00
2022-08-10T10:29:19.737Z,79104.00
2022-08-10T10:29:57.342Z,78464.00
2022-08-10T10:30:46.396Z,76576.00
2022-08-10T10:31:44.397Z,78816.00
2022-08-10T10:32:44.386Z,79968.00
2022-08-10T10:33:44.394Z,80064.00
2022-08-10T10:34:44.400Z,78912.00
2022-08-10T10:35:44.364Z,77184.00
2022-08-10T10:36:44.350Z,78624.00
2022-08-10T10:38:01.319Z,77984.00
2022-08-10T10:38:45.331Z,77152.00
2022-08-10T10:39:44.414Z,77888.00
2022-08-10T10:40:44.339Z,76768.00
2022-08-10T10:42:03.840Z,75936.00
2022-08-10T10:42:45.877Z,75680.00
2022-08-10T10:43:45.310Z,77120.00
2022-08-10T10:44:44.342Z,77216.00
2022-08-10T10:45:50.118Z,76064.00
2022-08-10T10:46:45.292Z,75904.00
2022-08-10T10:47:44.289Z,76608.00
2022-08-10T10:48:44.293Z,75424.00
2022-08-10T10:49:44.310Z,73952.00
2022-08-10T10:50:44.260Z,69152.00
2022-08-10T10:51:44.262Z,67616.00
2022-08-10T10:52:44.245Z,69184.00
2022-08-10T10:53:44.247Z,72544.00
2022-08-10T10:54:44.237Z,74208.00
2022-08-10T10:56:15.516Z,73888.00
2022-08-10T10:56:45.225Z,74816.00
2022-08-10T10:57:58.535Z,73440.00
2022-08-10T10:58:45.207Z,72832.00
2022-08-10T10:59:56.669Z,69344.00
2022-08-10T11:00:45.197Z,63136.00
2022-08-10T11:01:44.256Z,53184.00
2022-08-10T11:02:44.176Z,43744.00
2022-08-10T11:03:44.170Z,33216.00
2022-08-10T11:04:44.205Z,26944.00
2022-08-10T11:05:44.163Z,25152.00
2022-08-10T11:06:44.154Z,24288.00
2022-08-10T11:07:45.898Z,23936.00
2022-08-10T11:08:45.156Z,23680.00
2022-08-10T11:10:05.305Z,23104.00
2022-08-10T11:10:47.522Z,22464.00
2022-08-10T11:12:01.941Z,22720.00
2022-08-10T11:12:46.971Z,18368.00
2022-08-10T11:14:24.551Z,19808.00
2022-08-10T11:14:45.131Z,23680.00
2022-08-10T11:15:47.648Z,23552.00
2022-08-10T11:16:44.099Z,23456.00
2022-08-10T11:17:44.087Z,23232.00
2022-08-10T11:18:44.081Z,23232.00
2022-08-10T11:20:02.054Z,24896.00
2022-08-10T11:20:45.064Z,27040.00
2022-08-10T11:21:44.066Z,25920.00
2022-08-10T11:22:44.059Z,23712.00
2022-08-10T11:23:44.054Z,23584.00
2022-08-10T11:24:49.851Z,24256.00
2022-08-10T11:25:45.037Z,26112.00
2022-08-10T11:26:44.043Z,32736.00
2022-08-10T11:27:44.019Z,44768.00
2022-08-10T11:28:44.015Z,55168.00
2022-08-10T11:29:49.966Z,81632.00
2022-08-10T11:30:45.995Z,107776.00
2022-08-10T11:31:43.999Z,87296.00
2022-08-10T11:32:43.989Z,49024.00
2022-08-10T11:34:03.953Z,26400.00
2022-08-10T11:34:48.674Z,25664.00
2022-08-10T11:35:44.967Z,24960.00
2022-08-10T11:36:43.983Z,24608.00
2022-08-10T11:38:33.031Z,24416.00
2022-08-10T11:39:11.228Z,24224.00
2022-08-10T11:40:12.519Z,24256.00
2022-08-10T11:40:43.931Z,24352.00
2022-08-10T11:42:08.885Z,24192.00
2022-08-10T11:43:06.762Z,23840.00
2022-08-10T11:44:09.482Z,23616.00
2022-08-10T11:44:49.349Z,23328.00
2022-08-10T11:45:51.505Z,23040.00
2022-08-10T11:46:44.902Z,22880.00
2022-08-10T11:47:43.883Z,22752.00
2022-08-10T11:48:53.180Z,22720.00
2022-08-10T11:49:44.906Z,22688.00
2022-08-10T11:50:43.866Z,22880.00
2022-08-10T11:51:43.858Z,23008.00
2022-08-10T11:52:44.841Z,23008.00
2022-08-10T11:53:44.855Z,23264.00
2022-08-10T11:54:43.838Z,23360.00
2022-08-10T11:55:43.864Z,23232.00
2022-08-10T11:56:43.833Z,23200.00
2022-08-10T11:57:54.093Z,15888.00
2022-08-10T11:58:44.807Z,21984.00
2022-08-10T11:59:43.808Z,22464.00
2022-08-10T12:00:43.834Z,23712.00
2022-08-10T12:01:43.790Z,20064.00
2022-08-10T12:02:43.816Z,20480.00
2022-08-10T12:03:43.795Z,23840.00
2022-08-10T12:04:43.776Z,23712.00
2022-08-10T12:05:53.750Z,23904.00
2022-08-10T12:06:57.808Z,24032.00
2022-08-10T12:10:03.892Z,24096.00
2022-08-10T12:10:06.815Z,24000.00
2022-08-10T12:10:11.204Z,24416.00
2022-08-10T12:10:44.757Z,24640.00
2022-08-10T12:11:43.728Z,24640.00
2022-08-10T12:12:43.725Z,24896.00
2022-08-10T12:13:58.400Z,25280.00
2022-08-10T12:14:45.734Z,22720.00
2022-08-10T12:15:43.704Z,23360.00
2022-08-10T12:16:43.680Z,25216.00